createdAt,value
2022-08-24T00:02:03.901Z,4.70
2022-08-24T00:04:32.697Z,5.20
2022-08-24T00:07:02.309Z,5.90
2022-08-24T00:09:32.070Z,6.20
2022-08-24T00:12:00.429Z,6.80
2022-08-24T00:14:29.333Z,8.00
2022-08-24T00:16:58.585Z,10.80
2022-08-24T00:19:29.379Z,11.40
2022-08-24T00:21:57.803Z,12.00
2022-08-24T00:24:26.345Z,11.30
2022-08-24T00:26:54.998Z,10.40
2022-08-24T00:29:24.072Z,9.30
2022-08-24T00:31:52.238Z,9.50
2022-08-24T00:34:20.401Z,10.20
2022-08-24T00:36:48.487Z,9.80
2022-08-24T00:39:17.050Z,8.90
2022-08-24T00:41:47.270Z,10.00
2022-08-24T00:44:16.958Z,9.60
2022-08-24T00:46:44.921Z,10.70
2022-08-24T00:49:30.443Z,11.30
2022-08-24T00:52:05.760Z,11.70
2022-08-24T00:54:42.813Z,9.40
2022-08-24T00:57:18.438Z,9.80
2022-08-24T00:59:57.458Z,5.40
2022-08-24T01:02:29.870Z,5.60
2022-08-24T01:05:01.646Z,5.70
2022-08-24T01:07:31.673Z,5.80
2022-08-24T01:10:04.291Z,6.40
2022-08-24T01:12:34.793Z,6.30
2022-08-24T01:15:07.083Z,8.20
2022-08-24T01:17:55.346Z,9.30
2022-08-24T01:20:26.441Z,11.10
2022-08-24T01:23:22.248Z,9.60
2022-08-24T01:28:25.180Z,9.00
2022-08-24T01:30:56.089Z,9.70
2022-08-24T01:33:31.556Z,8.70
2022-08-24T01:36:08.451Z,9.00
2022-08-24T01:38:36.816Z,8.90
2022-08-24T01:41:04.948Z,8.60
2022-08-24T01:43:34.390Z,8.40
2022-08-24T01:46:08.405Z,8.10
2022-08-24T01:48:37.266Z,8.70
2022-08-24T01:51:05.323Z,9.10
2022-08-24T01:53:34.040Z,8.80
2022-08-24T01:56:02.330Z,8.70
2022-08-24T01:58:30.810Z,8.70
2022-08-24T02:01:00.385Z,8.90
2022-08-24T02:03:30.369Z,9.00
2022-08-24T02:05:59.815Z,8.40
2022-08-24T02:08:28.185Z,7.60
2022-08-24T02:10:56.700Z,7.70
2022-08-24T02:13:25.315Z,8.90
2022-08-24T02:15:53.417Z,9.30
2022-08-24T02:18:21.464Z,10.60
2022-08-24T02:20:50.281Z,9.20
2022-08-24T02:23:18.793Z,10.90
2022-08-24T02:25:47.598Z,10.50
2022-08-24T02:28:15.897Z,12.70
2022-08-24T02:30:45.061Z,6.70
2022-08-24T02:33:13.433Z,6.30
2022-08-24T02:35:42.283Z,6.50
2022-08-24T02:38:11.116Z,7.30
2022-08-24T02:40:39.521Z,7.30
2022-08-24T02:43:07.585Z,7.60
2022-08-24T02:45:42.429Z,12.20
2022-08-24T02:48:11.899Z,11.40
2022-08-24T02:50:42.648Z,12.00
2022-08-24T02:53:12.193Z,12.50
2022-08-24T02:55:41.912Z,13.00
2022-08-24T02:58:13.211Z,12.80
2022-08-24T03:00:42.487Z,12.40
2022-08-24T03:03:11.658Z,12.80
2022-08-24T03:05:42.808Z,13.50
2022-08-24T03:08:10.890Z,12.10
2022-08-24T03:10:39.956Z,12.40
2022-08-24T03:13:08.414Z,12.00
2022-08-24T03:15:36.551Z,11.70
2022-08-24T03:18:05.245Z,12.10
2022-08-24T03:20:33.310Z,14.10
2022-08-24T03:23:01.478Z,13.90
2022-08-24T03:25:29.889Z,14.80
2022-08-24T03:27:57.908Z,13.90
2022-08-24T03:30:26.810Z,13.70
2022-08-24T03:32:55.363Z,13.90
2022-08-24T03:35:23.513Z,12.90
2022-08-24T03:37:52.021Z,12.70
2022-08-24T03:40:22.214Z,12.20
2022-08-24T03:42:51.520Z,11.20
2022-08-24T03:45:21.049Z,11.70
2022-08-24T03:47:49.731Z,11.60
2022-08-24T03:50:19.273Z,12.20
2022-08-24T03:52:48.249Z,13.60
2022-08-24T03:55:16.424Z,13.10
2022-08-24T03:57:44.642Z,11.50
2022-08-24T04:00:13.874Z,11.70
2022-08-24T04:02:50.195Z,12.00
2022-08-24T04:05:20.590Z,10.10
2022-08-24T04:07:48.798Z,9.40
2022-08-24T04:10:16.768Z,9.40
2022-08-24T04:12:45.695Z,9.70
2022-08-24T04:15:14.897Z,9.00
2022-08-24T04:17:43.833Z,12.50
2022-08-24T04:20:12.193Z,11.50
2022-08-24T04:22:41.801Z,19.50
2022-08-24T04:25:12.001Z,23.20
2022-08-24T04:27:41.818Z,20.90
2022-08-24T04:30:14.292Z,18.60
2022-08-24T04:33:01.041Z,22.30
2022-08-24T04:35:29.638Z,23.30
2022-08-24T04:37:58.060Z,21.20
2022-08-24T04:40:26.569Z,20.30
2022-08-24T04:42:54.711Z,19.40
2022-08-24T04:45:23.363Z,19.50
2022-08-24T04:47:52.158Z,19.60
2022-08-24T04:50:21.367Z,20.80
2022-08-24T04:52:53.034Z,20.40
2022-08-24T04:55:23.016Z,20.40
2022-08-24T04:57:51.879Z,19.30
2022-08-24T05:00:23.624Z,16.50
2022-08-24T05:02:52.345Z,15.00
2022-08-24T05:05:20.392Z,15.00
2022-08-24T05:07:50.693Z,12.70
2022-08-24T05:10:22.747Z,13.30
2022-08-24T05:12:50.979Z,13.50
2022-08-24T05:15:19.256Z,13.10
2022-08-24T05:17:51.229Z,13.60
2022-08-24T05:20:22.427Z,14.30
2022-08-24T05:22:56.022Z,15.70
2022-08-24T05:25:24.922Z,14.80
2022-08-24T05:27:54.245Z,13.40
2022-08-24T05:30:22.987Z,12.20
2022-08-24T05:32:51.223Z,11.80
2022-08-24T05:35:21.869Z,11.70
2022-08-24T05:37:50.177Z,13.10
2022-08-24T05:40:21.538Z,13.10
2022-08-24T05:42:52.466Z,12.50
2022-08-24T05:45:21.363Z,11.90
2022-08-24T05:47:50.508Z,11.60
2022-08-24T05:50:42.063Z,12.70
2022-08-24T05:53:11.177Z,14.30
2022-08-24T05:55:41.075Z,13.90
2022-08-24T05:58:10.991Z,13.30
2022-08-24T06:00:46.912Z,8.60
2022-08-24T06:03:15.663Z,8.10
2022-08-24T06:05:49.971Z,10.30
2022-08-24T06:08:18.378Z,10.20
2022-08-24T06:10:47.989Z,11.00
2022-08-24T06:13:17.704Z,10.90
2022-08-24T06:16:04.825Z,16.30
2022-08-24T06:18:36.849Z,10.80
2022-08-24T06:21:18.965Z,10.30
2022-08-24T06:23:51.216Z,13.40
2022-08-24T06:26:39.243Z,8.80
2022-08-24T06:29:08.554Z,7.70
2022-08-24T06:31:44.224Z,7.20
2022-08-24T06:34:19.844Z,6.60
2022-08-24T06:36:50.068Z,6.20
2022-08-24T06:39:19.684Z,6.40
2022-08-24T06:41:48.884Z,5.90
2022-08-24T06:44:21.741Z,6.20
2022-08-24T06:46:56.476Z,5.60
2022-08-24T06:49:25.017Z,5.80
2022-08-24T06:51:53.101Z,6.60
2022-08-24T06:54:22.183Z,6.10
2022-08-24T06:56:56.440Z,6.80
2022-08-24T06:59:29.184Z,6.60
2022-08-24T07:01:58.474Z,6.30
2022-08-24T07:04:29.323Z,5.80
2022-08-24T07:07:26.817Z,6.70
2022-08-24T07:09:56.460Z,7.10
2022-08-24T07:12:25.682Z,6.70
2022-08-24T07:14:59.121Z,6.00
2022-08-24T07:17:37.460Z,6.10
2022-08-24T07:20:09.829Z,6.00
2022-08-24T07:22:56.379Z,6.70
2022-08-24T07:25:27.741Z,6.80
2022-08-24T07:28:01.157Z,6.70
2022-08-24T07:30:35.258Z,5.90
2022-08-24T07:33:07.928Z,6.00
2022-08-24T07:35:37.760Z,5.80
2022-08-24T07:38:08.670Z,6.80
2022-08-24T07:41:09.494Z,5.70
2022-08-24T07:43:40.949Z,6.30
2022-08-24T07:46:14.765Z,6.10
2022-08-24T07:48:45.938Z,5.70
2022-08-24T07:51:19.415Z,4.80
2022-08-24T07:53:54.008Z,4.60
2022-08-24T07:56:31.040Z,6.20
2022-08-24T07:59:02.278Z,6.50
2022-08-24T08:01:31.278Z,6.30
2022-08-24T08:04:03.000Z,6.30
2022-08-24T08:06:32.377Z,5.20
2022-08-24T08:09:05.034Z,5.00
2022-08-24T08:11:33.951Z,4.30
2022-08-24T08:14:02.227Z,4.40
2022-08-24T08:16:34.444Z,4.50
2022-08-24T08:19:11.060Z,4.80
2022-08-24T08:22:08.388Z,5.00
2022-08-24T08:24:44.494Z,6.00
2022-08-24T08:27:15.194Z,6.40
2022-08-24T08:29:44.178Z,5.60
2022-08-24T08:32:17.029Z,4.30
2022-08-24T08:34:47.214Z,4.70
2022-08-24T08:37:16.816Z,4.50
2022-08-24T08:39:46.411Z,4.60
2022-08-24T08:42:45.671Z,4.90
2022-08-24T08:45:29.256Z,4.60
2022-08-24T08:51:02.801Z,4.20
2022-08-24T08:54:00.951Z,4.30
2022-08-24T08:56:44.599Z,4.40
2022-08-24T08:59:43.908Z,5.50
2022-08-24T09:02:36.616Z,4.70
2022-08-24T09:05:35.766Z,4.30
2022-08-24T09:08:36.494Z,4.40
2022-08-24T09:11:27.059Z,4.30
2022-08-24T09:14:12.649Z,5.40
2022-08-24T09:17:21.078Z,4.40
2022-08-24T09:20:13.859Z,5.00
2022-08-24T09:22:48.321Z,5.70
2022-08-24T09:25:47.558Z,5.20
2022-08-24T09:28:20.360Z,7.40
2022-08-24T09:31:17.668Z,6.20
2022-08-24T09:34:14.490Z,6.10
2022-08-24T09:37:01.153Z,5.90
2022-08-24T09:39:58.788Z,7.30
2022-08-24T09:42:57.616Z,7.40
2022-08-24T09:46:09.237Z,7.20
2022-08-24T09:48:47.705Z,4.70
2022-08-24T09:51:54.047Z,5.20
2022-08-24T09:54:40.358Z,5.00
2022-08-24T09:57:44.209Z,5.20
2022-08-24T10:00:47.078Z,5.60
2022-08-24T10:03:38.312Z,8.00
2022-08-24T10:06:29.848Z,5.40
2022-08-24T10:09:20.555Z,5.60
2022-08-24T10:12:15.865Z,4.90
2022-08-24T10:15:04.516Z,5.00
2022-08-24T10:18:11.118Z,12.50
2022-08-24T10:21:02.945Z,6.50
2022-08-24T10:23:55.191Z,5.00
2022-08-24T10:26:39.123Z,5.90
2022-08-24T10:29:33.083Z,9.30
2022-08-24T10:32:19.371Z,5.50
2022-08-24T10:35:20.457Z,5.60
2022-08-24T10:38:47.993Z,5.80
2022-08-24T10:41:47.170Z,5.90
2022-08-24T10:44:35.179Z,5.30
2022-08-24T10:47:19.653Z,4.90
2022-08-24T10:49:55.088Z,4.80
2022-08-24T10:53:08.724Z,5.10
2022-08-24T10:55:38.009Z,5.10
2022-08-24T10:58:45.722Z,4.60
2022-08-24T11:01:18.399Z,4.80
2022-08-24T11:03:57.170Z,4.40
2022-08-24T11:06:28.806Z,4.50
2022-08-24T11:09:11.823Z,4.30
2022-08-24T11:11:52.847Z,4.50
2022-08-24T11:14:27.623Z,4.60
2022-08-24T11:17:19.297Z,4.20
2022-08-24T11:19:49.050Z,3.80
2022-08-24T11:22:57.458Z,4.10
2022-08-24T11:25:28.238Z,4.10
2022-08-24T11:28:25.670Z,4.30
2022-08-24T11:30:54.141Z,4.20
2022-08-24T11:33:33.197Z,4.30
2022-08-24T11:36:14.431Z,4.40
2022-08-24T11:39:23.242Z,4.00
2022-08-24T11:42:39.341Z,3.30
2022-08-24T11:45:23.993Z,4.10
2022-08-24T11:48:02.215Z,4.10
2022-08-24T11:50:43.345Z,3.40
2022-08-24T11:53:24.487Z,4.30
2022-08-24T11:56:09.711Z,3.60
2022-08-24T11:58:50.773Z,4.50
2022-08-24T12:01:51.615Z,4.90
2022-08-24T12:04:52.133Z,3.60
2022-08-24T12:07:58.777Z,4.00
2022-08-24T12:10:51.422Z,3.50
2022-08-24T12:13:22.290Z,3.70
2022-08-24T12:16:31.751Z,3.30
2022-08-24T12:19:16.181Z,4.40
2022-08-24T12:21:49.833Z,3.60
2022-08-24T12:24:36.288Z,3.20
2022-08-24T12:27:17.772Z,3.60
2022-08-24T12:29:54.969Z,4.80
2022-08-24T12:32:39.202Z,5.00
2022-08-24T12:37:52.410Z,3.70
2022-08-24T12:40:36.407Z,5.10
2022-08-24T12:43:42.939Z,3.70
2022-08-24T12:46:15.867Z,4.10
2022-08-24T12:49:02.589Z,4.00
2022-08-24T12:52:08.384Z,3.40
2022-08-24T12:54:37.218Z,3.60
2022-08-24T12:57:13.070Z,5.30
2022-08-24T12:59:52.688Z,4.30
2022-08-24T13:02:22.455Z,3.70
2022-08-24T13:04:56.043Z,3.60
2022-08-24T13:09:53.476Z,3.70
2022-08-24T13:12:33.657Z,2.90
2022-08-24T13:15:26.547Z,3.00
2022-08-24T13:18:21.471Z,4.70
2022-08-24T13:20:51.495Z,6.10
2022-08-24T13:23:25.309Z,2.70
2022-08-24T13:26:04.959Z,2.80
2022-08-24T13:28:54.354Z,3.10
2022-08-24T13:31:33.262Z,2.40
2022-08-24T13:34:09.274Z,4.30
2022-08-24T13:36:45.066Z,19.30
2022-08-24T13:39:51.853Z,3.60
2022-08-24T13:42:37.354Z,2.70
2022-08-24T13:45:33.380Z,2.80
2022-08-24T13:48:10.429Z,2.70
2022-08-24T13:51:14.752Z,2.30
2022-08-24T13:53:50.823Z,2.40
2022-08-24T13:56:44.673Z,2.70
2022-08-24T13:59:47.255Z,2.60
2022-08-24T14:02:16.786Z,2.70
2022-08-24T14:04:53.670Z,4.10
2022-08-24T14:07:28.404Z,2.80
2022-08-24T14:10:34.391Z,2.50
2022-08-24T14:13:36.029Z,2.60
2022-08-24T14:16:56.167Z,2.80
2022-08-24T14:19:47.402Z,2.40
2022-08-24T14:22:27.969Z,2.30
2022-08-24T14:25:22.611Z,2.50
2022-08-24T14:28:23.529Z,2.10
2022-08-24T14:31:11.120Z,3.90
2022-08-24T14:33:52.979Z,2.40
2022-08-24T14:36:39.743Z,2.60
2022-08-24T14:39:35.426Z,2.70
2022-08-24T14:42:41.578Z,2.70
2022-08-24T14:45:14.363Z,2.90
2022-08-24T14:48:15.429Z,2.30
2022-08-24T14:50:49.100Z,2.30
2022-08-24T14:53:44.533Z,2.80
2022-08-24T14:56:39.169Z,3.20
2022-08-24T14:59:16.144Z,2.80
2022-08-24T15:01:47.000Z,3.20
2022-08-24T15:04:43.787Z,2.60
2022-08-24T15:07:29.996Z,2.80
2022-08-24T15:10:04.831Z,2.50
2022-08-24T15:13:06.747Z,4.40
2022-08-24T15:15:51.209Z,2.50
2022-08-24T15:18:28.166Z,2.40
2022-08-24T15:21:30.438Z,3.90
2022-08-24T15:27:22.466Z,2.50
2022-08-24T15:30:21.966Z,2.50
2022-08-24T15:33:09.530Z,2.30
2022-08-24T15:35:42.306Z,2.50
2022-08-24T15:38:40.985Z,2.40
2022-08-24T15:41:38.010Z,2.60
2022-08-24T15:44:09.553Z,2.60
2022-08-24T15:46:56.825Z,2.20
2022-08-24T15:49:36.583Z,2.00
2022-08-24T15:52:08.850Z,2.30
2022-08-24T15:54:58.550Z,2.20
2022-08-24T15:57:31.101Z,2.50
2022-08-24T16:00:15.442Z,2.60
2022-08-24T16:02:43.762Z,3.00
2022-08-24T16:05:37.304Z,2.60
2022-08-24T16:08:12.966Z,2.40
2022-08-24T16:10:57.012Z,2.70
2022-08-24T16:13:31.012Z,2.50
2022-08-24T16:16:09.175Z,2.70
2022-08-24T16:19:00.016Z,2.70
2022-08-24T16:21:37.918Z,2.60
2022-08-24T16:24:25.450Z,2.60
2022-08-24T16:26:58.763Z,3.20
2022-08-24T16:29:44.855Z,3.00
2022-08-24T16:32:30.419Z,2.90
2022-08-24T16:35:07.256Z,3.70
2022-08-24T16:37:35.506Z,3.40
2022-08-24T16:40:04.989Z,3.40
2022-08-24T16:42:34.705Z,3.60
2022-08-24T16:45:05.204Z,3.40
2022-08-24T16:47:33.665Z,3.20
2022-08-24T16:50:06.041Z,3.90
2022-08-24T16:52:34.444Z,3.50
2022-08-24T16:55:02.837Z,5.60
2022-08-24T16:57:40.035Z,5.30
2022-08-24T17:00:15.696Z,5.30
2022-08-24T17:02:47.632Z,5.80
2022-08-24T17:05:18.713Z,5.00
2022-08-24T17:07:48.424Z,5.70
2022-08-24T17:10:19.258Z,4.40
2022-08-24T17:12:50.650Z,4.70
2022-08-24T17:15:20.615Z,5.10
2022-08-24T17:17:58.550Z,5.20
2022-08-24T17:20:26.710Z,5.70
2022-08-24T17:22:56.304Z,4.50
2022-08-24T17:25:28.572Z,4.90
2022-08-24T17:27:59.151Z,3.90
2022-08-24T17:30:30.057Z,4.90
2022-08-24T17:32:59.365Z,4.60
2022-08-24T17:35:28.075Z,5.10
2022-08-24T17:37:57.737Z,5.00
2022-08-24T17:40:29.541Z,5.30
2022-08-24T17:42:59.172Z,5.00
2022-08-24T17:45:27.405Z,5.50
2022-08-24T17:47:55.798Z,5.50
2022-08-24T17:50:29.423Z,6.50
2022-08-24T17:53:06.491Z,5.50
2022-08-24T17:55:34.670Z,5.50
2022-08-24T17:58:03.717Z,6.60
2022-08-24T18:00:32.043Z,5.30
2022-08-24T18:03:01.335Z,5.20
2022-08-24T18:05:33.091Z,5.10
2022-08-24T18:08:02.148Z,6.10
2022-08-24T18:10:34.466Z,6.60
2022-08-24T18:13:04.091Z,5.40
2022-08-24T18:15:36.418Z,5.90
2022-08-24T18:18:09.474Z,5.60
2022-08-24T18:20:40.827Z,5.90
2022-08-24T18:23:11.784Z,6.40
2022-08-24T18:25:46.132Z,5.70
2022-08-24T18:28:16.168Z,5.80
2022-08-24T18:30:45.066Z,5.80
2022-08-24T18:33:13.964Z,5.80
2022-08-24T18:35:42.284Z,6.60
2022-08-24T18:38:11.132Z,6.00
2022-08-24T18:40:41.578Z,6.10
2022-08-24T18:43:23.902Z,6.10
2022-08-24T18:45:53.263Z,6.30
2022-08-24T18:48:23.593Z,6.20
2022-08-24T18:50:52.990Z,6.20
2022-08-24T18:53:26.098Z,6.10
2022-08-24T18:55:54.503Z,6.20
2022-08-24T18:58:22.591Z,6.20
2022-08-24T19:00:52.303Z,6.10
2022-08-24T19:03:23.632Z,6.50
2022-08-24T19:05:51.886Z,6.70
2022-08-24T19:08:20.788Z,6.30
2022-08-24T19:10:51.779Z,6.60
2022-08-24T19:13:19.938Z,6.20
2022-08-24T19:15:49.680Z,5.90
2022-08-24T19:18:20.613Z,6.30
2022-08-24T19:20:52.076Z,5.60
2022-08-24T19:23:30.134Z,5.90
2022-08-24T19:25:59.365Z,6.20
2022-08-24T19:28:28.754Z,6.00
2022-08-24T19:30:59.891Z,5.30
2022-08-24T19:33:35.894Z,5.50
2022-08-24T19:36:06.418Z,5.80
2022-08-24T19:38:34.550Z,5.30
2022-08-24T19:41:11.873Z,5.80
2022-08-24T19:44:00.739Z,5.90
2022-08-24T19:46:28.890Z,6.20
2022-08-24T19:48:57.268Z,6.00
2022-08-24T19:51:26.807Z,4.90
2022-08-24T19:53:54.974Z,5.70
2022-08-24T19:56:23.844Z,5.70
2022-08-24T19:58:58.789Z,6.30
2022-08-24T20:01:32.672Z,6.30
2022-08-24T20:04:06.028Z,5.60
2022-08-24T20:06:37.325Z,5.30
2022-08-24T20:09:05.602Z,5.70
2022-08-24T20:11:37.002Z,5.80
2022-08-24T20:14:06.656Z,6.20
2022-08-24T20:16:39.218Z,6.40
2022-08-24T20:19:08.099Z,6.00
2022-08-24T20:21:37.776Z,5.60
2022-08-24T20:24:06.581Z,6.10
2022-08-24T20:26:46.953Z,5.60
2022-08-24T20:29:15.294Z,5.80
2022-08-24T20:31:50.740Z,5.90
2022-08-24T20:34:23.236Z,6.10
2022-08-24T20:36:51.231Z,5.80
2022-08-24T20:39:22.831Z,6.60
2022-08-24T20:41:52.883Z,5.60
2022-08-24T20:44:24.497Z,5.30
2022-08-24T20:46:54.010Z,5.80
2022-08-24T20:49:26.833Z,5.60
2022-08-24T20:51:55.669Z,5.00
2022-08-24T20:54:24.167Z,5.60
2022-08-24T20:56:52.556Z,5.60
2022-08-24T20:59:22.491Z,5.50
2022-08-24T21:01:51.673Z,6.30
2022-08-24T21:04:19.763Z,5.50
2022-08-24T21:06:48.019Z,5.40
2022-08-24T21:09:19.407Z,5.40
2022-08-24T21:11:47.464Z,5.20
2022-08-24T21:14:17.069Z,5.10
2022-08-24T21:16:46.301Z,5.00
2022-08-24T21:19:18.100Z,5.10
2022-08-24T21:21:47.577Z,5.20
2022-08-24T21:24:16.050Z,5.40
2022-08-24T21:26:44.293Z,6.00
2022-08-24T21:29:12.291Z,4.90
2022-08-24T21:31:40.358Z,5.80
2022-08-24T21:34:28.002Z,5.10
2022-08-24T21:36:56.104Z,5.50
2022-08-24T21:39:24.168Z,4.70
2022-08-24T21:41:53.563Z,5.30
2022-08-24T21:44:22.110Z,5.00
2022-08-24T21:46:51.965Z,5.00
2022-08-24T21:49:20.617Z,5.40
2022-08-24T21:51:48.671Z,5.60
2022-08-24T21:54:17.329Z,5.70
2022-08-24T21:56:45.401Z,5.40
2022-08-24T21:59:13.782Z,5.10
2022-08-24T22:01:43.883Z,5.20
2022-08-24T22:04:12.364Z,5.40
2022-08-24T22:06:40.547Z,5.20
2022-08-24T22:09:09.004Z,4.60
2022-08-24T22:11:37.097Z,4.60
2022-08-24T22:14:05.630Z,5.10
2022-08-24T22:16:36.921Z,5.30
2022-08-24T22:19:07.063Z,5.80
2022-08-24T22:21:36.386Z,5.00
2022-08-24T22:24:04.818Z,5.10
2022-08-24T22:26:34.481Z,5.20
2022-08-24T22:29:05.438Z,4.90
2022-08-24T22:31:36.180Z,5.10
2022-08-24T22:34:10.122Z,4.90
2022-08-24T22:36:40.451Z,5.40
2022-08-24T22:39:11.868Z,5.10
2022-08-24T22:41:40.890Z,5.30
2022-08-24T22:44:21.722Z,6.00
2022-08-24T22:46:56.305Z,5.30
2022-08-24T22:49:29.173Z,4.70
2022-08-24T22:51:57.323Z,4.90
2022-08-24T22:54:26.178Z,5.30
2022-08-24T22:56:57.314Z,5.40
2022-08-24T22:59:28.584Z,5.20
2022-08-24T23:01:58.283Z,5.00
2022-08-24T23:04:32.106Z,5.00
2022-08-24T23:07:01.233Z,5.00
2022-08-24T23:09:29.481Z,5.10
2022-08-24T23:12:15.526Z,4.90
2022-08-24T23:14:43.681Z,4.90
2022-08-24T23:17:12.186Z,5.00
2022-08-24T23:19:58.765Z,5.00
2022-08-24T23:22:38.436Z,5.10
2022-08-24T23:25:10.076Z,4.90
2022-08-24T23:27:38.984Z,4.90
2022-08-24T23:30:11.053Z,5.10
2022-08-24T23:32:39.911Z,5.10
2022-08-24T23:35:09.016Z,5.30
2022-08-24T23:37:37.568Z,4.90
2022-08-24T23:40:07.611Z,4.50
2022-08-24T23:42:35.608Z,5.00
2022-08-24T23:45:03.850Z,4.60
2022-08-24T23:47:36.131Z,4.70
2022-08-24T23:50:10.732Z,5.10
2022-08-24T23:52:39.951Z,4.90
2022-08-24T23:55:20.910Z,4.90
2022-08-24T23:57:52.732Z,5.30
